sensor_id;sensor_type;location;lat;lon;timestamp;P1;durP1;ratioP1;P2;durP2;ratioP2
26181;SDS011;13927;51.534;11.866;2022-11-23T00:03:48;28.48;;;17.30;;
26181;SDS011;13927;51.534;11.866;2022-11-23T00:06:16;29.88;;;18.52;;
26181;SDS011;13927;51.534;11.866;2022-11-23T00:08:43;32.95;;;18.30;;
26181;SDS011;13927;51.534;11.866;2022-11-23T00:11:10;27.30;;;17.33;;
26181;SDS011;13927;51.534;11.866;2022-11-23T00:13:36;29.80;;;17.80;;
26181;SDS011;13927;51.534;11.866;2022-11-23T00:16:07;28.33;;;17.42;;
26181;SDS011;13927;51.534;11.866;2022-11-23T00:18:38;31.35;;;17.85;;
26181;SDS011;13927;51.534;11.866;2022-11-23T00:21:11;26.63;;;17.00;;
26181;SDS011;13927;51.534;11.866;2022-11-23T00:23:40;28.40;;;17.25;;
26181;SDS011;13927;51.534;11.866;2022-11-23T00:26:06;26.70;;;15.43;;
26181;SDS011;13927;51.534;11.866;2022-11-23T00:28:32;26.02;;;15.50;;
26181;SDS011;13927;51.534;11.866;2022-11-23T00:31:01;22.98;;;14.35;;
26181;SDS011;13927;51.534;11.866;2022-11-23T00:33:27;20.80;;;13.65;;
26181;SDS011;13927;51.534;11.866;2022-11-23T00:36:03;19.00;;;13.27;;
26181;SDS011;13927;51.534;11.866;2022-11-23T00:38:30;20.30;;;14.40;;
26181;SDS011;13927;51.534;11.866;2022-11-23T00:40:59;33.53;;;18.10;;
26181;SDS011;13927;51.534;11.866;2022-11-23T00:43:27;33.17;;;18.60;;
26181;SDS011;13927;51.534;11.866;2022-11-23T00:46:01;25.90;;;16.00;;
26181;SDS011;13927;51.534;11.866;2022-11-23T00:48:33;26.90;;;16.13;;
26181;SDS011;13927;51.534;11.866;2022-11-23T00:51:00;29.52;;;16.50;;
26181;SDS011;13927;51.534;11.866;2022-11-23T00:53:27;26.08;;;16.10;;
26181;SDS011;13927;51.534;11.866;2022-11-23T00:55:54;24.98;;;15.27;;
26181;SDS011;13927;51.534;11.866;2022-11-23T00:58:21;31.63;;;16.75;;
26181;SDS011;13927;51.534;11.866;2022-11-23T01:00:47;22.52;;;15.05;;
26181;SDS011;13927;51.534;11.866;2022-11-23T01:03:13;28.17;;;17.67;;
26181;SDS011;13927;51.534;11.866;2022-11-23T01:05:40;32.45;;;18.33;;
26181;SDS011;13927;51.534;11.866;2022-11-23T01:08:06;28.55;;;18.58;;
26181;SDS011;13927;51.534;11.866;2022-11-23T01:10:32;33.15;;;19.33;;
26181;SDS011;13927;51.534;11.866;2022-11-23T01:12:58;31.13;;;19.05;;
26181;SDS011;13927;51.534;11.866;2022-11-23T01:15:24;30.73;;;18.13;;
26181;SDS011;13927;51.534;11.866;2022-11-23T01:17:50;29.35;;;18.75;;
26181;SDS011;13927;51.534;11.866;2022-11-23T01:20:17;28.23;;;18.65;;
26181;SDS011;13927;51.534;11.866;2022-11-23T01:22:42;30.70;;;18.80;;
26181;SDS011;13927;51.534;11.866;2022-11-23T01:25:08;32.70;;;18.38;;
26181;SDS011;13927;51.534;11.866;2022-11-23T01:27:34;25.85;;;16.50;;
26181;SDS011;13927;51.534;11.866;2022-11-23T01:30:00;26.52;;;16.88;;
26181;SDS011;13927;51.534;11.866;2022-11-23T01:32:25;25.90;;;16.02;;
26181;SDS011;13927;51.534;11.866;2022-11-23T01:34:51;25.90;;;15.57;;
26181;SDS011;13927;51.534;11.866;2022-11-23T01:37:17;31.77;;;17.38;;
26181;SDS011;13927;51.534;11.866;2022-11-23T01:39:42;23.58;;;14.60;;
26181;SDS011;13927;51.534;11.866;2022-11-23T01:42:08;24.90;;;13.95;;
26181;SDS011;13927;51.534;11.866;2022-11-23T01:44:35;25.55;;;14.07;;
26181;SDS011;13927;51.534;11.866;2022-11-23T01:47:04;27.38;;;14.48;;
26181;SDS011;13927;51.534;11.866;2022-11-23T01:49:39;23.40;;;14.85;;
26181;SDS011;13927;51.534;11.866;2022-11-23T01:52:10;26.50;;;14.57;;
26181;SDS011;13927;51.534;11.866;2022-11-23T01:54:44;30.77;;;16.83;;
26181;SDS011;13927;51.534;11.866;2022-11-23T01:57:34;23.77;;;15.13;;
26181;SDS011;13927;51.534;11.866;2022-11-23T02:00:04;25.80;;;14.52;;
26181;SDS011;13927;51.534;11.866;2022-11-23T02:02:32;24.90;;;13.70;;
26181;SDS011;13927;51.534;11.866;2022-11-23T02:05:00;23.00;;;12.90;;
26181;SDS011;13927;51.534;11.866;2022-11-23T02:07:28;20.38;;;12.35;;
26181;SDS011;13927;51.534;11.866;2022-11-23T02:09:55;21.25;;;13.10;;
26181;SDS011;13927;51.534;11.866;2022-11-23T02:12:21;22.85;;;12.77;;
26181;SDS011;13927;51.534;11.866;2022-11-23T02:14:46;19.55;;;13.45;;
26181;SDS011;13927;51.534;11.866;2022-11-23T02:17:12;20.35;;;12.65;;
26181;SDS011;13927;51.534;11.866;2022-11-23T02:20:01;26.20;;;13.73;;
26181;SDS011;13927;51.534;11.866;2022-11-23T02:25:37;21.75;;;13.07;;
26181;SDS011;13927;51.534;11.866;2022-11-23T02:28:18;20.13;;;12.38;;
26181;SDS011;13927;51.534;11.866;2022-11-23T02:30:52;22.35;;;12.85;;
26181;SDS011;13927;51.534;11.866;2022-11-23T02:33:19;20.80;;;11.80;;
26181;SDS011;13927;51.534;11.866;2022-11-23T02:35:48;20.55;;;13.07;;
26181;SDS011;13927;51.534;11.866;2022-11-23T02:38:26;20.50;;;11.98;;
26181;SDS011;13927;51.534;11.866;2022-11-23T02:40:56;21.00;;;12.55;;
26181;SDS011;13927;51.534;11.866;2022-11-23T02:43:22;23.58;;;12.48;;
26181;SDS011;13927;51.534;11.866;2022-11-23T02:45:58;21.23;;;12.38;;
26181;SDS011;13927;51.534;11.866;2022-11-23T02:48:27;19.48;;;11.50;;
26181;SDS011;13927;51.534;11.866;2022-11-23T02:50:53;23.17;;;12.23;;
26181;SDS011;13927;51.534;11.866;2022-11-23T02:53:19;21.38;;;11.70;;
26181;SDS011;13927;51.534;11.866;2022-11-23T02:55:45;22.73;;;12.43;;
26181;SDS011;13927;51.534;11.866;2022-11-23T02:58:11;16.27;;;11.45;;
26181;SDS011;13927;51.534;11.866;2022-11-23T03:00:37;20.88;;;12.68;;
26181;SDS011;13927;51.534;11.866;2022-11-23T03:03:02;17.08;;;11.75;;
26181;SDS011;13927;51.534;11.866;2022-11-23T03:05:28;19.83;;;13.13;;
26181;SDS011;13927;51.534;11.866;2022-11-23T03:07:54;21.65;;;11.93;;
26181;SDS011;13927;51.534;11.866;2022-11-23T03:10:20;18.80;;;11.82;;
26181;SDS011;13927;51.534;11.866;2022-11-23T03:12:46;18.42;;;12.73;;
26181;SDS011;13927;51.534;11.866;2022-11-23T03:15:12;19.50;;;13.05;;
26181;SDS011;13927;51.534;11.866;2022-11-23T03:17:38;22.98;;;13.13;;
26181;SDS011;13927;51.534;11.866;2022-11-23T03:20:03;23.83;;;12.43;;
26181;SDS011;13927;51.534;11.866;2022-11-23T03:22:30;20.40;;;11.60;;
26181;SDS011;13927;51.534;11.866;2022-11-23T03:24:56;19.00;;;12.00;;
26181;SDS011;13927;51.534;11.866;2022-11-23T03:27:21;15.77;;;11.43;;
26181;SDS011;13927;51.534;11.866;2022-11-23T03:29:47;16.98;;;10.80;;
26181;SDS011;13927;51.534;11.866;2022-11-23T03:32:13;16.50;;;10.57;;
26181;SDS011;13927;51.534;11.866;2022-11-23T03:34:39;21.70;;;11.35;;
26181;SDS011;13927;51.534;11.866;2022-11-23T03:37:05;20.30;;;11.18;;
26181;SDS011;13927;51.534;11.866;2022-11-23T03:39:30;17.38;;;10.93;;
26181;SDS011;13927;51.534;11.866;2022-11-23T03:41:56;18.67;;;11.43;;
26181;SDS011;13927;51.534;11.866;2022-11-23T03:44:22;18.02;;;10.70;;
26181;SDS011;13927;51.534;11.866;2022-11-23T03:46:47;22.48;;;11.65;;
26181;SDS011;13927;51.534;11.866;2022-11-23T03:49:14;24.60;;;12.65;;
26181;SDS011;13927;51.534;11.866;2022-11-23T03:51:40;15.55;;;11.00;;
26181;SDS011;13927;51.534;11.866;2022-11-23T03:54:06;15.68;;;9.90;;
26181;SDS011;13927;51.534;11.866;2022-11-23T03:56:32;18.60;;;11.18;;
26181;SDS011;13927;51.534;11.866;2022-11-23T03:58:58;21.80;;;11.85;;
26181;SDS011;13927;51.534;11.866;2022-11-23T04:01:24;17.30;;;10.35;;
26181;SDS011;13927;51.534;11.866;2022-11-23T04:03:50;21.70;;;11.18;;
26181;SDS011;13927;51.534;11.866;2022-11-23T04:06:16;16.40;;;11.57;;
26181;SDS011;13927;51.534;11.866;2022-11-23T04:08:42;16.38;;;11.00;;
26181;SDS011;13927;51.534;11.866;2022-11-23T04:11:08;15.98;;;11.00;;
26181;SDS011;13927;51.534;11.866;2022-11-23T04:13:34;21.88;;;12.25;;
26181;SDS011;13927;51.534;11.866;2022-11-23T04:15:59;21.20;;;12.75;;
26181;SDS011;13927;51.534;11.866;2022-11-23T04:18:25;27.30;;;13.43;;
26181;SDS011;13927;51.534;11.866;2022-11-23T04:20:51;23.05;;;13.38;;
26181;SDS011;13927;51.534;11.866;2022-11-23T04:23:16;19.70;;;13.13;;
26181;SDS011;13927;51.534;11.866;2022-11-23T04:25:42;18.98;;;12.50;;
26181;SDS011;13927;51.534;11.866;2022-11-23T04:28:09;16.77;;;10.90;;
26181;SDS011;13927;51.534;11.866;2022-11-23T04:30:35;19.25;;;12.18;;
26181;SDS011;13927;51.534;11.866;2022-11-23T04:33:00;17.65;;;11.63;;
26181;SDS011;13927;51.534;11.866;2022-11-23T04:35:26;23.48;;;12.77;;
26181;SDS011;13927;51.534;11.866;2022-11-23T04:37:52;21.92;;;12.77;;
26181;SDS011;13927;51.534;11.866;2022-11-23T04:40:17;20.02;;;13.50;;
26181;SDS011;13927;51.534;11.866;2022-11-23T04:42:43;28.05;;;15.93;;
26181;SDS011;13927;51.534;11.866;2022-11-23T04:45:09;24.92;;;15.13;;
26181;SDS011;13927;51.534;11.866;2022-11-23T04:47:35;27.92;;;15.85;;
26181;SDS011;13927;51.534;11.866;2022-11-23T04:50:01;30.05;;;16.73;;
26181;SDS011;13927;51.534;11.866;2022-11-23T04:52:27;25.90;;;15.93;;
26181;SDS011;13927;51.534;11.866;2022-11-23T04:54:52;26.10;;;15.30;;
26181;SDS011;13927;51.534;11.866;2022-11-23T04:57:18;20.83;;;14.95;;
26181;SDS011;13927;51.534;11.866;2022-11-23T04:59:44;24.95;;;16.50;;
26181;SDS011;13927;51.534;11.866;2022-11-23T05:02:09;26.00;;;18.23;;
26181;SDS011;13927;51.534;11.866;2022-11-23T05:04:35;27.25;;;17.70;;
26181;SDS011;13927;51.534;11.866;2022-11-23T05:07:01;27.33;;;17.48;;
26181;SDS011;13927;51.534;11.866;2022-11-23T05:09:27;24.73;;;17.23;;
26181;SDS011;13927;51.534;11.866;2022-11-23T05:11:52;25.58;;;17.55;;
26181;SDS011;13927;51.534;11.866;2022-11-23T05:14:18;26.45;;;16.58;;
26181;SDS011;13927;51.534;11.866;2022-11-23T05:16:44;28.52;;;18.80;;
26181;SDS011;13927;51.534;11.866;2022-11-23T05:19:09;27.92;;;17.02;;
26181;SDS011;13927;51.534;11.866;2022-11-23T05:21:35;22.83;;;15.85;;
26181;SDS011;13927;51.534;11.866;2022-11-23T05:24:01;21.67;;;14.45;;
26181;SDS011;13927;51.534;11.866;2022-11-23T05:26:27;23.38;;;14.52;;
26181;SDS011;13927;51.534;11.866;2022-11-23T05:28:52;21.40;;;15.32;;
26181;SDS011;13927;51.534;11.866;2022-11-23T05:31:18;21.02;;;14.75;;
26181;SDS011;13927;51.534;11.866;2022-11-23T05:33:44;20.13;;;13.88;;
26181;SDS011;13927;51.534;11.866;2022-11-23T05:36:10;21.55;;;14.20;;
26181;SDS011;13927;51.534;11.866;2022-11-23T05:38:38;20.45;;;13.77;;
26181;SDS011;13927;51.534;11.866;2022-11-23T05:41:05;17.30;;;13.18;;
26181;SDS011;13927;51.534;11.866;2022-11-23T05:43:31;23.20;;;15.82;;
26181;SDS011;13927;51.534;11.866;2022-11-23T05:45:57;17.75;;;12.85;;
26181;SDS011;13927;51.534;11.866;2022-11-23T05:48:24;22.20;;;15.30;;
26181;SDS011;13927;51.534;11.866;2022-11-23T05:50:50;25.63;;;17.15;;
26181;SDS011;13927;51.534;11.866;2022-11-23T05:53:16;30.35;;;19.17;;
26181;SDS011;13927;51.534;11.866;2022-11-23T05:55:42;24.60;;;15.55;;
26181;SDS011;13927;51.534;11.866;2022-11-23T05:58:07;23.52;;;14.48;;
26181;SDS011;13927;51.534;11.866;2022-11-23T06:00:33;21.45;;;13.82;;
26181;SDS011;13927;51.534;11.866;2022-11-23T06:02:59;20.50;;;14.20;;
26181;SDS011;13927;51.534;11.866;2022-11-23T06:05:26;23.25;;;14.55;;
26181;SDS011;13927;51.534;11.866;2022-11-23T06:07:53;20.60;;;13.60;;
26181;SDS011;13927;51.534;11.866;2022-11-23T06:10:19;19.65;;;13.73;;
26181;SDS011;13927;51.534;11.866;2022-11-23T06:12:44;24.67;;;14.82;;
26181;SDS011;13927;51.534;11.866;2022-11-23T06:15:11;24.95;;;15.00;;
26181;SDS011;13927;51.534;11.866;2022-11-23T06:17:37;23.65;;;14.95;;
26181;SDS011;13927;51.534;11.866;2022-11-23T06:20:06;22.05;;;12.52;;
26181;SDS011;13927;51.534;11.866;2022-11-23T06:22:33;18.85;;;13.20;;
26181;SDS011;13927;51.534;11.866;2022-11-23T06:24:59;21.42;;;13.77;;
26181;SDS011;13927;51.534;11.866;2022-11-23T06:27:25;17.95;;;12.68;;
26181;SDS011;13927;51.534;11.866;2022-11-23T06:29:51;20.80;;;13.85;;
26181;SDS011;13927;51.534;11.866;2022-11-23T06:32:17;19.88;;;13.57;;
26181;SDS011;13927;51.534;11.866;2022-11-23T06:34:43;20.67;;;13.23;;
26181;SDS011;13927;51.534;11.866;2022-11-23T06:37:09;21.13;;;12.43;;
26181;SDS011;13927;51.534;11.866;2022-11-23T06:39:34;23.48;;;13.88;;
26181;SDS011;13927;51.534;11.866;2022-11-23T06:42:00;23.38;;;13.93;;
26181;SDS011;13927;51.534;11.866;2022-11-23T06:44:26;31.23;;;19.02;;
26181;SDS011;13927;51.534;11.866;2022-11-23T06:46:52;24.77;;;14.90;;
26181;SDS011;13927;51.534;11.866;2022-11-23T06:49:17;23.23;;;14.70;;
26181;SDS011;13927;51.534;11.866;2022-11-23T06:51:45;24.42;;;13.77;;
26181;SDS011;13927;51.534;11.866;2022-11-23T06:54:11;22.25;;;14.40;;
26181;SDS011;13927;51.534;11.866;2022-11-23T06:56:37;21.38;;;14.68;;
26181;SDS011;13927;51.534;11.866;2022-11-23T06:59:03;21.27;;;13.38;;
26181;SDS011;13927;51.534;11.866;2022-11-23T07:01:28;22.73;;;13.60;;
26181;SDS011;13927;51.534;11.866;2022-11-23T07:03:54;21.38;;;13.38;;
26181;SDS011;13927;51.534;11.866;2022-11-23T07:06:20;21.77;;;14.57;;
26181;SDS011;13927;51.534;11.866;2022-11-23T07:08:46;22.05;;;14.68;;
26181;SDS011;13927;51.534;11.866;2022-11-23T07:11:12;25.00;;;15.70;;
26181;SDS011;13927;51.534;11.866;2022-11-23T07:13:37;23.95;;;16.08;;
26181;SDS011;13927;51.534;11.866;2022-11-23T07:16:05;22.27;;;16.35;;
26181;SDS011;13927;51.534;11.866;2022-11-23T07:18:31;23.60;;;15.45;;
26181;SDS011;13927;51.534;11.866;2022-11-23T07:20:57;24.33;;;15.57;;
26181;SDS011;13927;51.534;11.866;2022-11-23T07:23:23;25.08;;;15.00;;
26181;SDS011;13927;51.534;11.866;2022-11-23T07:25:50;19.52;;;13.88;;
26181;SDS011;13927;51.534;11.866;2022-11-23T07:28:16;21.02;;;14.30;;
26181;SDS011;13927;51.534;11.866;2022-11-23T07:30:42;22.55;;;15.05;;
26181;SDS011;13927;51.534;11.866;2022-11-23T07:33:09;19.77;;;13.52;;
26181;SDS011;13927;51.534;11.866;2022-11-23T07:35:36;25.35;;;14.60;;
26181;SDS011;13927;51.534;11.866;2022-11-23T07:38:04;19.25;;;13.82;;
26181;SDS011;13927;51.534;11.866;2022-11-23T07:40:35;21.05;;;14.88;;
26181;SDS011;13927;51.534;11.866;2022-11-23T07:43:02;23.88;;;14.30;;
26181;SDS011;13927;51.534;11.866;2022-11-23T07:45:29;24.05;;;16.33;;
26181;SDS011;13927;51.534;11.866;2022-11-23T07:48:03;23.60;;;16.38;;
26181;SDS011;13927;51.534;11.866;2022-11-23T07:50:32;23.88;;;17.70;;
26181;SDS011;13927;51.534;11.866;2022-11-23T07:53:03;23.90;;;17.85;;
26181;SDS011;13927;51.534;11.866;2022-11-23T07:55:30;24.58;;;17.25;;
26181;SDS011;13927;51.534;11.866;2022-11-23T07:57:56;19.33;;;14.63;;
26181;SDS011;13927;51.534;11.866;2022-11-23T08:00:22;18.48;;;13.07;;
26181;SDS011;13927;51.534;11.866;2022-11-23T08:02:50;18.80;;;14.00;;
26181;SDS011;13927;51.534;11.866;2022-11-23T08:05:16;20.92;;;13.98;;
26181;SDS011;13927;51.534;11.866;2022-11-23T08:07:42;28.88;;;18.27;;
26181;SDS011;13927;51.534;11.866;2022-11-23T08:10:09;26.08;;;18.77;;
26181;SDS011;13927;51.534;11.866;2022-11-23T08:12:37;26.35;;;19.00;;
26181;SDS011;13927;51.534;11.866;2022-11-23T08:15:03;25.13;;;15.60;;
26181;SDS011;13927;51.534;11.866;2022-11-23T08:17:30;22.63;;;13.95;;
26181;SDS011;13927;51.534;11.866;2022-11-23T08:19:56;18.92;;;13.18;;
26181;SDS011;13927;51.534;11.866;2022-11-23T08:22:22;25.77;;;19.48;;
26181;SDS011;13927;51.534;11.866;2022-11-23T08:24:48;31.15;;;23.30;;
26181;SDS011;13927;51.534;11.866;2022-11-23T08:27:14;28.80;;;20.13;;
26181;SDS011;13927;51.534;11.866;2022-11-23T08:29:40;25.60;;;17.58;;
26181;SDS011;13927;51.534;11.866;2022-11-23T08:32:05;24.27;;;16.70;;
26181;SDS011;13927;51.534;11.866;2022-11-23T08:34:31;21.70;;;14.77;;
26181;SDS011;13927;51.534;11.866;2022-11-23T08:36:57;21.48;;;15.32;;
26181;SDS011;13927;51.534;11.866;2022-11-23T08:39:23;21.75;;;15.00;;
26181;SDS011;13927;51.534;11.866;2022-11-23T08:41:50;20.30;;;15.15;;
26181;SDS011;13927;51.534;11.866;2022-11-23T08:44:15;18.85;;;13.80;;
26181;SDS011;13927;51.534;11.866;2022-11-23T08:46:41;20.88;;;13.48;;
26181;SDS011;13927;51.534;11.866;2022-11-23T08:49:07;19.67;;;13.88;;
26181;SDS011;13927;51.534;11.866;2022-11-23T08:51:33;20.42;;;13.98;;
26181;SDS011;13927;51.534;11.866;2022-11-23T08:53:58;22.23;;;13.30;;
26181;SDS011;13927;51.534;11.866;2022-11-23T08:56:24;17.75;;;14.23;;
26181;SDS011;13927;51.534;11.866;2022-11-23T08:58:50;21.40;;;14.95;;
26181;SDS011;13927;51.534;11.866;2022-11-23T09:01:16;21.85;;;15.05;;
26181;SDS011;13927;51.534;11.866;2022-11-23T09:03:42;18.48;;;14.20;;
26181;SDS011;13927;51.534;11.866;2022-11-23T09:06:09;19.60;;;13.02;;
26181;SDS011;13927;51.534;11.866;2022-11-23T09:08:36;17.08;;;11.90;;
26181;SDS011;13927;51.534;11.866;2022-11-23T09:11:03;19.60;;;12.98;;
26181;SDS011;13927;51.534;11.866;2022-11-23T09:13:31;17.02;;;12.23;;
26181;SDS011;13927;51.534;11.866;2022-11-23T09:15:59;16.90;;;10.95;;
26181;SDS011;13927;51.534;11.866;2022-11-23T09:18:26;16.83;;;8.70;;
26181;SDS011;13927;51.534;11.866;2022-11-23T09:20:54;14.15;;;7.75;;
26181;SDS011;13927;51.534;11.866;2022-11-23T09:23:21;12.38;;;7.85;;
26181;SDS011;13927;51.534;11.866;2022-11-23T09:25:47;13.18;;;7.22;;
26181;SDS011;13927;51.534;11.866;2022-11-23T09:28:14;9.80;;;7.13;;
26181;SDS011;13927;51.534;11.866;2022-11-23T09:30:43;13.65;;;7.07;;
26181;SDS011;13927;51.534;11.866;2022-11-23T09:33:11;15.77;;;7.05;;
26181;SDS011;13927;51.534;11.866;2022-11-23T09:35:37;9.13;;;6.53;;
26181;SDS011;13927;51.534;11.866;2022-11-23T09:38:03;9.18;;;6.13;;
26181;SDS011;13927;51.534;11.866;2022-11-23T09:40:30;12.93;;;6.18;;
26181;SDS011;13927;51.534;11.866;2022-11-23T09:45:53;7.60;;;4.93;;
26181;SDS011;13927;51.534;11.866;2022-11-23T09:48:24;7.53;;;4.82;;
26181;SDS011;13927;51.534;11.866;2022-11-23T09:51:16;7.78;;;4.55;;
26181;SDS011;13927;51.534;11.866;2022-11-23T09:53:48;9.43;;;4.53;;
26181;SDS011;13927;51.534;11.866;2022-11-23T09:56:20;10.75;;;4.60;;
26181;SDS011;13927;51.534;11.866;2022-11-23T09:58:52;7.57;;;4.18;;
26181;SDS011;13927;51.534;11.866;2022-11-23T10:01:21;8.73;;;4.50;;
26181;SDS011;13927;51.534;11.866;2022-11-23T10:03:47;7.35;;;3.97;;
26181;SDS011;13927;51.534;11.866;2022-11-23T10:06:26;7.10;;;3.83;;
26181;SDS011;13927;51.534;11.866;2022-11-23T10:17:55;9.50;;;3.67;;
26181;SDS011;13927;51.534;11.866;2022-11-23T10:23:16;7.10;;;3.40;;
26181;SDS011;13927;51.534;11.866;2022-11-23T10:26:13;8.57;;;3.25;;
26181;SDS011;13927;51.534;11.866;2022-11-23T10:28:44;10.63;;;4.35;;
26181;SDS011;13927;51.534;11.866;2022-11-23T10:31:18;10.68;;;3.50;;
26181;SDS011;13927;51.534;11.866;2022-11-23T10:36:39;8.93;;;2.97;;
26181;SDS011;13927;51.534;11.866;2022-11-23T10:41:48;10.83;;;3.77;;
26181;SDS011;13927;51.534;11.866;2022-11-23T10:46:50;6.70;;;3.00;;
26181;SDS011;13927;51.534;11.866;2022-11-23T10:56:56;9.10;;;3.38;;
26181;SDS011;13927;51.534;11.866;2022-11-23T10:59:35;12.60;;;2.97;;
26181;SDS011;13927;51.534;11.866;2022-11-23T11:02:19;6.97;;;2.80;;
26181;SDS011;13927;51.534;11.866;2022-11-23T11:04:46;7.95;;;3.22;;
26181;SDS011;13927;51.534;11.866;2022-11-23T11:09:54;9.32;;;3.08;;
26181;SDS011;13927;51.534;11.866;2022-11-23T11:12:25;6.18;;;2.90;;
26181;SDS011;13927;51.534;11.866;2022-11-23T11:17:29;6.95;;;2.90;;
26181;SDS011;13927;51.534;11.866;2022-11-23T11:19:58;7.72;;;3.40;;
26181;SDS011;13927;51.534;11.866;2022-11-23T11:24:58;8.02;;;2.70;;
26181;SDS011;13927;51.534;11.866;2022-11-23T11:27:26;8.05;;;2.45;;
26181;SDS011;13927;51.534;11.866;2022-11-23T11:29:56;5.50;;;2.53;;
26181;SDS011;13927;51.534;11.866;2022-11-23T11:32:51;4.22;;;2.50;;
26181;SDS011;13927;51.534;11.866;2022-11-23T11:35:37;7.78;;;2.63;;
26181;SDS011;13927;51.534;11.866;2022-11-23T11:38:28;6.25;;;2.70;;
26181;SDS011;13927;51.534;11.866;2022-11-23T11:40:59;5.65;;;2.53;;
26181;SDS011;13927;51.534;11.866;2022-11-23T11:43:34;6.90;;;2.50;;
26181;SDS011;13927;51.534;11.866;2022-11-23T11:46:09;8.55;;;2.35;;
26181;SDS011;13927;51.534;11.866;2022-11-23T11:48:39;7.20;;;2.30;;
26181;SDS011;13927;51.534;11.866;2022-11-23T11:51:12;9.20;;;2.78;;
26181;SDS011;13927;51.534;11.866;2022-11-23T11:53:54;6.63;;;2.47;;
26181;SDS011;13927;51.534;11.866;2022-11-23T11:56:43;7.22;;;2.30;;
26181;SDS011;13927;51.534;11.866;2022-11-23T11:59:56;8.32;;;2.30;;
26181;SDS011;13927;51.534;11.866;2022-11-23T12:02:17;4.28;;;1.80;;
26181;SDS011;13927;51.534;11.866;2022-11-23T12:07:48;9.73;;;2.60;;
26181;SDS011;13927;51.534;11.866;2022-11-23T12:11:05;6.82;;;2.50;;
26181;SDS011;13927;51.534;11.866;2022-11-23T12:13:33;5.07;;;2.00;;
26181;SDS011;13927;51.534;11.866;2022-11-23T12:19:07;6.88;;;2.47;;
26181;SDS011;13927;51.534;11.866;2022-11-23T12:24:53;3.28;;;2.03;;
26181;SDS011;13927;51.534;11.866;2022-11-23T12:30:37;6.57;;;2.30;;
26181;SDS011;13927;51.534;11.866;2022-11-23T12:42:43;5.68;;;2.28;;
26181;SDS011;13927;51.534;11.866;2022-11-23T12:59:46;4.30;;;2.07;;
26181;SDS011;13927;51.534;11.866;2022-11-23T13:03:07;6.63;;;2.22;;
26181;SDS011;13927;51.534;11.866;2022-11-23T13:15:25;5.90;;;2.25;;
26181;SDS011;13927;51.534;11.866;2022-11-23T13:23:47;7.40;;;2.28;;
26181;SDS011;13927;51.534;11.866;2022-11-23T13:28:46;6.87;;;2.33;;
26181;SDS011;13927;51.534;11.866;2022-11-23T13:33:39;4.57;;;1.98;;
26181;SDS011;13927;51.534;11.866;2022-11-23T13:38:57;6.18;;;2.00;;
26181;SDS011;13927;51.534;11.866;2022-11-23T13:44:17;11.25;;;2.45;;
26181;SDS011;13927;51.534;11.866;2022-11-23T13:49:51;6.10;;;2.20;;
26181;SDS011;13927;51.534;11.866;2022-11-23T13:52:46;5.47;;;1.90;;
26181;SDS011;13927;51.534;11.866;2022-11-23T13:57:44;8.15;;;2.90;;
26181;SDS011;13927;51.534;11.866;2022-11-23T14:00:45;4.70;;;2.05;;
26181;SDS011;13927;51.534;11.866;2022-11-23T14:06:15;6.97;;;2.00;;
26181;SDS011;13927;51.534;11.866;2022-11-23T14:11:38;5.28;;;1.63;;
26181;SDS011;13927;51.534;11.866;2022-11-23T14:14:39;4.63;;;2.00;;
26181;SDS011;13927;51.534;11.866;2022-11-23T14:23:27;6.72;;;2.28;;
26181;SDS011;13927;51.534;11.866;2022-11-23T14:37:53;5.93;;;2.20;;
26181;SDS011;13927;51.534;11.866;2022-11-23T14:43:11;4.72;;;1.85;;
26181;SDS011;13927;51.534;11.866;2022-11-23T14:45:43;6.93;;;2.13;;
26181;SDS011;13927;51.534;11.866;2022-11-23T14:48:24;5.88;;;1.90;;
26181;SDS011;13927;51.534;11.866;2022-11-23T14:50:59;5.78;;;2.38;;
26181;SDS011;13927;51.534;11.866;2022-11-23T14:53:31;4.18;;;1.98;;
26181;SDS011;13927;51.534;11.866;2022-11-23T14:56:00;3.10;;;1.77;;
26181;SDS011;13927;51.534;11.866;2022-11-23T14:58:27;3.30;;;2.30;;
26181;SDS011;13927;51.534;11.866;2022-11-23T15:00:59;5.90;;;1.88;;
26181;SDS011;13927;51.534;11.866;2022-11-23T15:03:27;5.13;;;2.17;;
26181;SDS011;13927;51.534;11.866;2022-11-23T15:06:17;4.72;;;1.77;;
26181;SDS011;13927;51.534;11.866;2022-11-23T15:11:41;5.47;;;2.45;;
26181;SDS011;13927;51.534;11.866;2022-11-23T15:14:20;6.97;;;2.35;;
26181;SDS011;13927;51.534;11.866;2022-11-23T15:16:50;4.63;;;2.35;;
26181;SDS011;13927;51.534;11.866;2022-11-23T15:19:17;6.13;;;2.60;;
26181;SDS011;13927;51.534;11.866;2022-11-23T15:21:53;5.50;;;2.42;;
26181;SDS011;13927;51.534;11.866;2022-11-23T15:24:23;5.88;;;3.08;;
26181;SDS011;13927;51.534;11.866;2022-11-23T15:26:51;4.25;;;2.40;;
26181;SDS011;13927;51.534;11.866;2022-11-23T15:29:31;6.18;;;2.92;;
26181;SDS011;13927;51.534;11.866;2022-11-23T15:32:00;9.20;;;3.03;;
26181;SDS011;13927;51.534;11.866;2022-11-23T15:34:28;5.57;;;3.00;;
26181;SDS011;13927;51.534;11.866;2022-11-23T15:36:54;7.10;;;3.00;;
26181;SDS011;13927;51.534;11.866;2022-11-23T15:39:21;6.30;;;3.35;;
26181;SDS011;13927;51.534;11.866;2022-11-23T15:41:49;6.53;;;2.60;;
26181;SDS011;13927;51.534;11.866;2022-11-23T15:44:29;6.50;;;2.70;;
26181;SDS011;13927;51.534;11.866;2022-11-23T15:47:00;6.82;;;3.15;;
26181;SDS011;13927;51.534;11.866;2022-11-23T15:49:37;6.38;;;2.72;;
26181;SDS011;13927;51.534;11.866;2022-11-23T15:52:04;5.53;;;2.78;;
26181;SDS011;13927;51.534;11.866;2022-11-23T15:54:33;5.55;;;3.30;;
26181;SDS011;13927;51.534;11.866;2022-11-23T15:57:00;11.00;;;4.13;;
26181;SDS011;13927;51.534;11.866;2022-11-23T15:59:34;7.18;;;3.47;;
26181;SDS011;13927;51.534;11.866;2022-11-23T16:02:14;6.07;;;3.15;;
26181;SDS011;13927;51.534;11.866;2022-11-23T16:04:45;6.18;;;3.58;;
26181;SDS011;13927;51.534;11.866;2022-11-23T16:07:14;8.48;;;3.85;;
26181;SDS011;13927;51.534;11.866;2022-11-23T16:09:47;6.93;;;3.83;;
26181;SDS011;13927;51.534;11.866;2022-11-23T16:12:53;8.57;;;3.58;;
26181;SDS011;13927;51.534;11.866;2022-11-23T16:18:14;7.38;;;3.85;;
26181;SDS011;13927;51.534;11.866;2022-11-23T16:20:42;8.32;;;4.05;;
26181;SDS011;13927;51.534;11.866;2022-11-23T16:23:10;7.43;;;4.20;;
26181;SDS011;13927;51.534;11.866;2022-11-23T16:25:43;7.38;;;4.20;;
26181;SDS011;13927;51.534;11.866;2022-11-23T16:28:16;6.90;;;3.95;;
26181;SDS011;13927;51.534;11.866;2022-11-23T16:30:52;7.47;;;3.28;;
26181;SDS011;13927;51.534;11.866;2022-11-23T16:33:18;7.07;;;3.72;;
26181;SDS011;13927;51.534;11.866;2022-11-23T16:35:45;5.20;;;3.25;;
26181;SDS011;13927;51.534;11.866;2022-11-23T16:38:11;7.03;;;3.67;;
26181;SDS011;13927;51.534;11.866;2022-11-23T16:40:37;6.25;;;3.65;;
26181;SDS011;13927;51.534;11.866;2022-11-23T16:43:04;9.27;;;3.63;;
26181;SDS011;13927;51.534;11.866;2022-11-23T16:45:30;8.63;;;4.07;;
26181;SDS011;13927;51.534;11.866;2022-11-23T16:48:00;7.35;;;3.47;;
26181;SDS011;13927;51.534;11.866;2022-11-23T16:50:28;7.28;;;3.60;;
26181;SDS011;13927;51.534;11.866;2022-11-23T16:52:59;8.63;;;4.10;;
26181;SDS011;13927;51.534;11.866;2022-11-23T16:55:34;7.25;;;4.22;;